sensor_id;sensor_type;location;lat;lon;timestamp;P1;durP1;ratioP1;P2;durP2;ratioP2
75061;SDS011;63641;46.526;24.612;2022-11-20T00:01:27;17.77;;;15.73;;
75061;SDS011;63641;46.526;24.612;2022-11-20T00:03:54;18.80;;;16.77;;
75061;SDS011;63641;46.526;24.612;2022-11-20T00:06:24;19.83;;;17.83;;
75061;SDS011;63641;46.526;24.612;2022-11-20T00:08:53;18.42;;;16.63;;
75061;SDS011;63641;46.526;24.612;2022-11-20T00:11:22;17.05;;;15.15;;
75061;SDS011;63641;46.526;24.612;2022-11-20T00:13:51;16.10;;;14.27;;
75061;SDS011;63641;46.526;24.612;2022-11-20T00:16:21;14.40;;;13.00;;
75061;SDS011;63641;46.526;24.612;2022-11-20T00:18:49;14.80;;;13.40;;
75061;SDS011;63641;46.526;24.612;2022-11-20T00:21:21;14.70;;;13.30;;
75061;SDS011;63641;46.526;24.612;2022-11-20T00:23:49;14.35;;;12.95;;
75061;SDS011;63641;46.526;24.612;2022-11-20T00:26:20;14.75;;;13.35;;
75061;SDS011;63641;46.526;24.612;2022-11-20T00:28:50;12.85;;;11.68;;
75061;SDS011;63641;46.526;24.612;2022-11-20T00:31:21;11.70;;;10.57;;
75061;SDS011;63641;46.526;24.612;2022-11-20T00:33:48;11.35;;;10.25;;
75061;SDS011;63641;46.526;24.612;2022-11-20T00:36:15;10.82;;;9.82;;
75061;SDS011;63641;46.526;24.612;2022-11-20T00:38:44;10.55;;;9.70;;
75061;SDS011;63641;46.526;24.612;2022-11-20T00:41:13;10.68;;;9.77;;
75061;SDS011;63641;46.526;24.612;2022-11-20T00:43:41;11.85;;;10.48;;
75061;SDS011;63641;46.526;24.612;2022-11-20T00:46:09;13.00;;;12.10;;
75061;SDS011;63641;46.526;24.612;2022-11-20T00:48:39;9.75;;;8.95;;
75061;SDS011;63641;46.526;24.612;2022-11-20T00:51:06;12.70;;;11.80;;
75061;SDS011;63641;46.526;24.612;2022-11-20T00:53:33;10.02;;;9.13;;
75061;SDS011;63641;46.526;24.612;2022-11-20T00:56:01;17.15;;;15.93;;
75061;SDS011;63641;46.526;24.612;2022-11-20T00:58:35;11.65;;;10.75;;
75061;SDS011;63641;46.526;24.612;2022-11-20T01:01:04;18.50;;;17.50;;
75061;SDS011;63641;46.526;24.612;2022-11-20T01:03:34;9.88;;;8.88;;
75061;SDS011;63641;46.526;24.612;2022-11-20T01:06:05;11.40;;;10.50;;
75061;SDS011;63641;46.526;24.612;2022-11-20T01:08:33;20.70;;;19.35;;
75061;SDS011;63641;46.526;24.612;2022-11-20T01:11:02;9.82;;;9.02;;
75061;SDS011;63641;46.526;24.612;2022-11-20T01:13:30;12.02;;;11.13;;
75061;SDS011;63641;46.526;24.612;2022-11-20T01:18:36;17.05;;;16.08;;
75061;SDS011;63641;46.526;24.612;2022-11-20T01:21:11;9.02;;;8.27;;
75061;SDS011;63641;46.526;24.612;2022-11-20T01:23:40;27.40;;;25.90;;
75061;SDS011;63641;46.526;24.612;2022-11-20T01:26:09;8.68;;;7.88;;
75061;SDS011;63641;46.526;24.612;2022-11-20T01:28:38;10.75;;;9.95;;
75061;SDS011;63641;46.526;24.612;2022-11-20T01:31:16;8.15;;;7.47;;
75061;SDS011;63641;46.526;24.612;2022-11-20T01:33:45;8.27;;;7.60;;
75061;SDS011;63641;46.526;24.612;2022-11-20T01:36:14;8.63;;;7.93;;
75061;SDS011;63641;46.526;24.612;2022-11-20T01:38:45;7.97;;;7.30;;
75061;SDS011;63641;46.526;24.612;2022-11-20T01:41:13;7.38;;;6.78;;
75061;SDS011;63641;46.526;24.612;2022-11-20T01:44:02;7.95;;;7.28;;
75061;SDS011;63641;46.526;24.612;2022-11-20T01:46:30;6.80;;;6.30;;
75061;SDS011;63641;46.526;24.612;2022-11-20T01:51:55;9.38;;;8.57;;
75061;SDS011;63641;46.526;24.612;2022-11-20T01:54:29;7.22;;;6.50;;
75061;SDS011;63641;46.526;24.612;2022-11-20T01:57:01;33.88;;;32.33;;
75061;SDS011;63641;46.526;24.612;2022-11-20T01:59:32;10.27;;;9.57;;
75061;SDS011;63641;46.526;24.612;2022-11-20T02:02:00;8.95;;;8.27;;
75061;SDS011;63641;46.526;24.612;2022-11-20T02:04:27;12.13;;;11.32;;
75061;SDS011;63641;46.526;24.612;2022-11-20T02:06:56;7.90;;;7.03;;
75061;SDS011;63641;46.526;24.612;2022-11-20T02:09:27;9.20;;;8.52;;
75061;SDS011;63641;46.526;24.612;2022-11-20T02:11:54;8.63;;;7.97;;
75061;SDS011;63641;46.526;24.612;2022-11-20T02:14:21;7.30;;;6.78;;
75061;SDS011;63641;46.526;24.612;2022-11-20T02:16:49;7.32;;;6.75;;
75061;SDS011;63641;46.526;24.612;2022-11-20T02:24:31;7.10;;;6.60;;
75061;SDS011;63641;46.526;24.612;2022-11-20T02:27:06;7.30;;;6.78;;
75061;SDS011;63641;46.526;24.612;2022-11-20T02:32:21;6.35;;;5.85;;
75061;SDS011;63641;46.526;24.612;2022-11-20T02:34:48;6.53;;;5.97;;
75061;SDS011;63641;46.526;24.612;2022-11-20T02:37:15;6.50;;;5.90;;
75061;SDS011;63641;46.526;24.612;2022-11-20T02:39:43;6.82;;;6.25;;
75061;SDS011;63641;46.526;24.612;2022-11-20T02:42:12;6.63;;;6.03;;
75061;SDS011;63641;46.526;24.612;2022-11-20T02:44:38;5.93;;;5.43;;
75061;SDS011;63641;46.526;24.612;2022-11-20T02:47:05;6.63;;;6.10;;
75061;SDS011;63641;46.526;24.612;2022-11-20T02:49:32;6.95;;;6.35;;
75061;SDS011;63641;46.526;24.612;2022-11-20T02:51:59;6.13;;;5.63;;
75061;SDS011;63641;46.526;24.612;2022-11-20T02:54:26;6.88;;;5.90;;
75061;SDS011;63641;46.526;24.612;2022-11-20T02:56:52;6.72;;;6.18;;
75061;SDS011;63641;46.526;24.612;2022-11-20T02:59:19;6.43;;;5.93;;
75061;SDS011;63641;46.526;24.612;2022-11-20T03:01:46;6.30;;;5.80;;
75061;SDS011;63641;46.526;24.612;2022-11-20T03:04:13;6.60;;;6.10;;
75061;SDS011;63641;46.526;24.612;2022-11-20T03:06:40;5.75;;;5.25;;
75061;SDS011;63641;46.526;24.612;2022-11-20T03:09:06;6.25;;;5.78;;
75061;SDS011;63641;46.526;24.612;2022-11-20T03:11:33;6.05;;;5.55;;
75061;SDS011;63641;46.526;24.612;2022-11-20T03:14:03;5.90;;;5.40;;
75061;SDS011;63641;46.526;24.612;2022-11-20T03:16:31;5.38;;;4.85;;
75061;SDS011;63641;46.526;24.612;2022-11-20T03:18:58;6.22;;;5.63;;
75061;SDS011;63641;46.526;24.612;2022-11-20T03:21:25;6.72;;;6.13;;
75061;SDS011;63641;46.526;24.612;2022-11-20T03:23:53;6.50;;;5.90;;
75061;SDS011;63641;46.526;24.612;2022-11-20T03:26:22;6.68;;;5.97;;
75061;SDS011;63641;46.526;24.612;2022-11-20T03:28:54;7.03;;;6.32;;
75061;SDS011;63641;46.526;24.612;2022-11-20T03:31:23;6.10;;;5.60;;
75061;SDS011;63641;46.526;24.612;2022-11-20T03:33:51;7.03;;;6.32;;
75061;SDS011;63641;46.526;24.612;2022-11-20T03:36:18;6.90;;;6.13;;
75061;SDS011;63641;46.526;24.612;2022-11-20T03:38:48;6.35;;;5.75;;
75061;SDS011;63641;46.526;24.612;2022-11-20T03:41:15;7.13;;;6.50;;
75061;SDS011;63641;46.526;24.612;2022-11-20T03:43:49;7.10;;;6.50;;
75061;SDS011;63641;46.526;24.612;2022-11-20T03:46:26;7.47;;;6.63;;
75061;SDS011;63641;46.526;24.612;2022-11-20T03:48:54;8.10;;;7.05;;
75061;SDS011;63641;46.526;24.612;2022-11-20T03:51:22;9.82;;;8.30;;
75061;SDS011;63641;46.526;24.612;2022-11-20T03:53:51;9.60;;;8.38;;
75061;SDS011;63641;46.526;24.612;2022-11-20T03:56:20;9.55;;;8.48;;
75061;SDS011;63641;46.526;24.612;2022-11-20T03:58:50;8.10;;;7.30;;
75061;SDS011;63641;46.526;24.612;2022-11-20T04:01:18;7.43;;;6.65;;
75061;SDS011;63641;46.526;24.612;2022-11-20T04:03:47;8.30;;;7.60;;
75061;SDS011;63641;46.526;24.612;2022-11-20T04:06:15;7.88;;;7.18;;
75061;SDS011;63641;46.526;24.612;2022-11-20T04:08:44;7.53;;;6.90;;
75061;SDS011;63641;46.526;24.612;2022-11-20T04:13:48;7.38;;;6.68;;
75061;SDS011;63641;46.526;24.612;2022-11-20T04:16:16;7.40;;;6.75;;
75061;SDS011;63641;46.526;24.612;2022-11-20T04:18:43;7.78;;;7.07;;
75061;SDS011;63641;46.526;24.612;2022-11-20T04:21:10;7.78;;;6.97;;
75061;SDS011;63641;46.526;24.612;2022-11-20T04:23:37;6.72;;;6.13;;
75061;SDS011;63641;46.526;24.612;2022-11-20T04:26:06;7.72;;;7.03;;
75061;SDS011;63641;46.526;24.612;2022-11-20T04:28:34;7.10;;;6.40;;
75061;SDS011;63641;46.526;24.612;2022-11-20T04:31:06;6.70;;;6.00;;
75061;SDS011;63641;46.526;24.612;2022-11-20T04:33:35;6.30;;;5.70;;
75061;SDS011;63641;46.526;24.612;2022-11-20T04:36:22;9.27;;;6.68;;
75061;SDS011;63641;46.526;24.612;2022-11-20T04:38:57;7.05;;;6.35;;
75061;SDS011;63641;46.526;24.612;2022-11-20T04:41:28;7.70;;;7.00;;
75061;SDS011;63641;46.526;24.612;2022-11-20T04:43:58;7.13;;;6.50;;
75061;SDS011;63641;46.526;24.612;2022-11-20T04:46:29;6.13;;;5.63;;
75061;SDS011;63641;46.526;24.612;2022-11-20T04:49:01;6.60;;;6.10;;
75061;SDS011;63641;46.526;24.612;2022-11-20T04:51:29;7.10;;;6.50;;
75061;SDS011;63641;46.526;24.612;2022-11-20T04:53:56;6.28;;;5.78;;
75061;SDS011;63641;46.526;24.612;2022-11-20T04:56:23;6.55;;;5.80;;
75061;SDS011;63641;46.526;24.612;2022-11-20T04:58:50;6.88;;;6.18;;
75061;SDS011;63641;46.526;24.612;2022-11-20T05:01:18;6.72;;;6.13;;
75061;SDS011;63641;46.526;24.612;2022-11-20T05:03:47;6.30;;;5.75;;
75061;SDS011;63641;46.526;24.612;2022-11-20T05:06:14;6.28;;;5.68;;
75061;SDS011;63641;46.526;24.612;2022-11-20T05:08:42;9.88;;;8.43;;
75061;SDS011;63641;46.526;24.612;2022-11-20T05:11:10;10.90;;;8.20;;
75061;SDS011;63641;46.526;24.612;2022-11-20T05:13:39;9.13;;;8.23;;
75061;SDS011;63641;46.526;24.612;2022-11-20T05:16:10;9.38;;;8.05;;
75061;SDS011;63641;46.526;24.612;2022-11-20T05:18:39;8.25;;;7.45;;
75061;SDS011;63641;46.526;24.612;2022-11-20T05:21:06;8.95;;;8.18;;
75061;SDS011;63641;46.526;24.612;2022-11-20T05:23:34;9.40;;;8.50;;
75061;SDS011;63641;46.526;24.612;2022-11-20T05:26:02;8.55;;;7.65;;
75061;SDS011;63641;46.526;24.612;2022-11-20T05:28:32;8.65;;;7.95;;
75061;SDS011;63641;46.526;24.612;2022-11-20T05:31:06;8.80;;;7.95;;
75061;SDS011;63641;46.526;24.612;2022-11-20T05:33:34;8.70;;;8.00;;
75061;SDS011;63641;46.526;24.612;2022-11-20T05:36:03;10.45;;;9.45;;
75061;SDS011;63641;46.526;24.612;2022-11-20T05:38:30;9.93;;;9.02;;
75061;SDS011;63641;46.526;24.612;2022-11-20T05:41:04;9.68;;;8.70;;
75061;SDS011;63641;46.526;24.612;2022-11-20T05:43:37;10.90;;;9.88;;
75061;SDS011;63641;46.526;24.612;2022-11-20T05:46:06;8.77;;;7.88;;
75061;SDS011;63641;46.526;24.612;2022-11-20T05:48:34;8.73;;;7.93;;
75061;SDS011;63641;46.526;24.612;2022-11-20T05:51:03;9.35;;;8.45;;
75061;SDS011;63641;46.526;24.612;2022-11-20T05:53:32;8.38;;;7.55;;
75061;SDS011;63641;46.526;24.612;2022-11-20T05:56:00;9.02;;;8.23;;
75061;SDS011;63641;46.526;24.612;2022-11-20T05:58:27;8.48;;;7.70;;
75061;SDS011;63641;46.526;24.612;2022-11-20T06:01:02;9.13;;;8.23;;
75061;SDS011;63641;46.526;24.612;2022-11-20T06:03:40;9.65;;;8.75;;
75061;SDS011;63641;46.526;24.612;2022-11-20T06:06:14;9.25;;;8.30;;
75061;SDS011;63641;46.526;24.612;2022-11-20T06:08:41;10.00;;;8.95;;
75061;SDS011;63641;46.526;24.612;2022-11-20T06:11:09;9.63;;;8.07;;
75061;SDS011;63641;46.526;24.612;2022-11-20T06:13:37;9.02;;;8.07;;
75061;SDS011;63641;46.526;24.612;2022-11-20T06:16:08;10.27;;;8.77;;
75061;SDS011;63641;46.526;24.612;2022-11-20T06:18:36;8.77;;;7.97;;
75061;SDS011;63641;46.526;24.612;2022-11-20T06:23:32;10.32;;;8.73;;
75061;SDS011;63641;46.526;24.612;2022-11-20T06:26:01;10.07;;;8.23;;
75061;SDS011;63641;46.526;24.612;2022-11-20T06:28:32;10.55;;;9.48;;
75061;SDS011;63641;46.526;24.612;2022-11-20T06:30:59;9.98;;;8.98;;
75061;SDS011;63641;46.526;24.612;2022-11-20T06:33:26;12.27;;;9.07;;
75061;SDS011;63641;46.526;24.612;2022-11-20T06:35:56;9.57;;;8.68;;
75061;SDS011;63641;46.526;24.612;2022-11-20T06:38:28;11.20;;;8.45;;
75061;SDS011;63641;46.526;24.612;2022-11-20T06:40:55;9.20;;;8.27;;
75061;SDS011;63641;46.526;24.612;2022-11-20T06:43:22;10.23;;;9.15;;
75061;SDS011;63641;46.526;24.612;2022-11-20T06:45:53;10.45;;;7.93;;
75061;SDS011;63641;46.526;24.612;2022-11-20T06:48:20;9.30;;;8.40;;
75061;SDS011;63641;46.526;24.612;2022-11-20T06:50:48;8.30;;;7.50;;
75061;SDS011;63641;46.526;24.612;2022-11-20T06:53:15;10.10;;;8.63;;
75061;SDS011;63641;46.526;24.612;2022-11-20T06:55:42;9.38;;;8.48;;
75061;SDS011;63641;46.526;24.612;2022-11-20T06:58:10;8.27;;;7.47;;
75061;SDS011;63641;46.526;24.612;2022-11-20T07:00:37;10.00;;;9.05;;
75061;SDS011;63641;46.526;24.612;2022-11-20T07:03:04;9.55;;;8.55;;
75061;SDS011;63641;46.526;24.612;2022-11-20T07:05:32;9.82;;;8.82;;
75061;SDS011;63641;46.526;24.612;2022-11-20T07:07:59;8.77;;;7.97;;
75061;SDS011;63641;46.526;24.612;2022-11-20T07:10:26;8.73;;;7.82;;
75061;SDS011;63641;46.526;24.612;2022-11-20T07:12:53;10.23;;;8.88;;
75061;SDS011;63641;46.526;24.612;2022-11-20T07:15:21;10.18;;;9.18;;
75061;SDS011;63641;46.526;24.612;2022-11-20T07:17:49;10.60;;;9.50;;
75061;SDS011;63641;46.526;24.612;2022-11-20T07:20:16;9.63;;;8.65;;
75061;SDS011;63641;46.526;24.612;2022-11-20T07:22:42;10.02;;;8.05;;
75061;SDS011;63641;46.526;24.612;2022-11-20T07:25:10;13.20;;;9.48;;
75061;SDS011;63641;46.526;24.612;2022-11-20T07:27:36;9.18;;;8.27;;
75061;SDS011;63641;46.526;24.612;2022-11-20T07:30:03;9.55;;;8.65;;
75061;SDS011;63641;46.526;24.612;2022-11-20T07:32:30;277.05;;;20.85;;
75061;SDS011;63641;46.526;24.612;2022-11-20T07:34:57;9.48;;;8.50;;
75061;SDS011;63641;46.526;24.612;2022-11-20T07:37:24;9.75;;;8.85;;
75061;SDS011;63641;46.526;24.612;2022-11-20T07:39:51;8.75;;;7.85;;
75061;SDS011;63641;46.526;24.612;2022-11-20T07:42:17;9.13;;;8.23;;
75061;SDS011;63641;46.526;24.612;2022-11-20T07:44:44;9.10;;;8.23;;
75061;SDS011;63641;46.526;24.612;2022-11-20T07:47:11;11.38;;;8.35;;
75061;SDS011;63641;46.526;24.612;2022-11-20T07:49:37;10.35;;;9.25;;
75061;SDS011;63641;46.526;24.612;2022-11-20T07:52:04;217.18;;;15.93;;
75061;SDS011;63641;46.526;24.612;2022-11-20T07:54:31;10.98;;;8.27;;
75061;SDS011;63641;46.526;24.612;2022-11-20T07:56:58;9.93;;;8.93;;
75061;SDS011;63641;46.526;24.612;2022-11-20T07:59:24;9.52;;;8.60;;
75061;SDS011;63641;46.526;24.612;2022-11-20T08:01:51;8.25;;;7.35;;
75061;SDS011;63641;46.526;24.612;2022-11-20T08:04:17;9.20;;;8.20;;
75061;SDS011;63641;46.526;24.612;2022-11-20T08:06:44;9.45;;;8.55;;
75061;SDS011;63641;46.526;24.612;2022-11-20T08:09:11;8.35;;;7.60;;
75061;SDS011;63641;46.526;24.612;2022-11-20T08:11:38;8.75;;;7.43;;
75061;SDS011;63641;46.526;24.612;2022-11-20T08:14:23;7.85;;;7.15;;
75061;SDS011;63641;46.526;24.612;2022-11-20T08:16:49;9.23;;;8.30;;
75061;SDS011;63641;46.526;24.612;2022-11-20T08:19:17;10.40;;;9.15;;
75061;SDS011;63641;46.526;24.612;2022-11-20T08:21:45;11.35;;;10.18;;
75061;SDS011;63641;46.526;24.612;2022-11-20T08:24:12;10.68;;;9.45;;
75061;SDS011;63641;46.526;24.612;2022-11-20T08:26:39;12.77;;;11.45;;
75061;SDS011;63641;46.526;24.612;2022-11-20T08:29:07;11.23;;;10.13;;
75061;SDS011;63641;46.526;24.612;2022-11-20T08:31:34;12.70;;;10.30;;
75061;SDS011;63641;46.526;24.612;2022-11-20T08:34:01;17.42;;;11.75;;
75061;SDS011;63641;46.526;24.612;2022-11-20T08:36:34;11.47;;;10.27;;
75061;SDS011;63641;46.526;24.612;2022-11-20T08:39:01;13.00;;;11.05;;
75061;SDS011;63641;46.526;24.612;2022-11-20T08:41:29;12.18;;;10.98;;
75061;SDS011;63641;46.526;24.612;2022-11-20T08:44:00;11.82;;;10.60;;
75061;SDS011;63641;46.526;24.612;2022-11-20T08:46:33;12.60;;;11.40;;
75061;SDS011;63641;46.526;24.612;2022-11-20T09:57:54;19.67;;;17.80;;
75061;SDS011;63641;46.526;24.612;2022-11-20T10:00:24;19.08;;;17.27;;
75061;SDS011;63641;46.526;24.612;2022-11-20T10:03:10;19.02;;;17.15;;
75061;SDS011;63641;46.526;24.612;2022-11-20T10:05:47;15.57;;;13.20;;
75061;SDS011;63641;46.526;24.612;2022-11-20T10:24:28;12.82;;;11.43;;
75061;SDS011;63641;46.526;24.612;2022-11-20T10:33:03;12.18;;;10.98;;
75061;SDS011;63641;46.526;24.612;2022-11-20T10:35:40;11.95;;;10.75;;
75061;SDS011;63641;46.526;24.612;2022-11-20T10:38:25;13.05;;;11.75;;
75061;SDS011;63641;46.526;24.612;2022-11-20T10:41:18;11.52;;;10.43;;
75061;SDS011;63641;46.526;24.612;2022-11-20T10:43:54;11.80;;;10.57;;
75061;SDS011;63641;46.526;24.612;2022-11-20T10:46:40;11.50;;;10.38;;
75061;SDS011;63641;46.526;24.612;2022-11-20T10:55:04;13.10;;;11.90;;
75061;SDS011;63641;46.526;24.612;2022-11-20T11:00:13;15.80;;;12.50;;
75061;SDS011;63641;46.526;24.612;2022-11-20T11:02:53;13.35;;;11.27;;
75061;SDS011;63641;46.526;24.612;2022-11-20T11:05:27;14.13;;;11.30;;
75061;SDS011;63641;46.526;24.612;2022-11-20T11:08:12;13.02;;;11.77;;
75061;SDS011;63641;46.526;24.612;2022-11-20T11:10:46;12.55;;;11.35;;
75061;SDS011;63641;46.526;24.612;2022-11-20T11:13:24;14.40;;;12.90;;
75061;SDS011;63641;46.526;24.612;2022-11-20T11:15:53;13.07;;;11.68;;
75061;SDS011;63641;46.526;24.612;2022-11-20T11:20:56;17.40;;;15.07;;
75061;SDS011;63641;46.526;24.612;2022-11-20T11:26:00;13.77;;;12.38;;
75061;SDS011;63641;46.526;24.612;2022-11-20T11:28:32;18.30;;;14.30;;
75061;SDS011;63641;46.526;24.612;2022-11-20T11:30:59;15.82;;;14.13;;
75061;SDS011;63641;46.526;24.612;2022-11-20T11:33:27;18.23;;;15.95;;
75061;SDS011;63641;46.526;24.612;2022-11-20T11:35:59;18.13;;;15.93;;
75061;SDS011;63641;46.526;24.612;2022-11-20T11:38:37;16.38;;;14.32;;
75061;SDS011;63641;46.526;24.612;2022-11-20T11:41:06;15.50;;;13.90;;
75061;SDS011;63641;46.526;24.612;2022-11-20T11:43:36;15.55;;;12.85;;
75061;SDS011;63641;46.526;24.612;2022-11-20T11:46:32;15.02;;;13.05;;
75061;SDS011;63641;46.526;24.612;2022-11-20T11:51:57;11.27;;;10.07;;
75061;SDS011;63641;46.526;24.612;2022-11-20T12:13:23;12.97;;;10.93;;
75061;SDS011;63641;46.526;24.612;2022-11-20T12:16:07;16.73;;;14.93;;
75061;SDS011;63641;46.526;24.612;2022-11-20T12:18:39;17.40;;;15.50;;
75061;SDS011;63641;46.526;24.612;2022-11-20T12:29:10;23.45;;;19.40;;
75061;SDS011;63641;46.526;24.612;2022-11-20T12:35:00;23.77;;;17.70;;
75061;SDS011;63641;46.526;24.612;2022-11-20T12:37:55;19.27;;;17.17;;
75061;SDS011;63641;46.526;24.612;2022-11-20T12:41:02;22.42;;;18.27;;
75061;SDS011;63641;46.526;24.612;2022-11-20T12:43:47;24.42;;;19.02;;
75061;SDS011;63641;46.526;24.612;2022-11-20T12:46:51;24.90;;;17.92;;
75061;SDS011;63641;46.526;24.612;2022-11-20T12:49:37;20.90;;;17.58;;
75061;SDS011;63641;46.526;24.612;2022-11-20T13:02:29;16.50;;;14.82;;
75061;SDS011;63641;46.526;24.612;2022-11-20T13:05:15;16.95;;;15.07;;
75061;SDS011;63641;46.526;24.612;2022-11-20T13:07:47;19.10;;;16.08;;
75061;SDS011;63641;46.526;24.612;2022-11-20T13:10:24;17.45;;;15.52;;
75061;SDS011;63641;46.526;24.612;2022-11-20T13:16:07;17.65;;;15.18;;
75061;SDS011;63641;46.526;24.612;2022-11-20T13:18:54;17.08;;;13.68;;
75061;SDS011;63641;46.526;24.612;2022-11-20T13:21:34;17.02;;;14.95;;
75061;SDS011;63641;46.526;24.612;2022-11-20T13:26:33;16.52;;;14.50;;
75061;SDS011;63641;46.526;24.612;2022-11-20T13:29:08;20.50;;;16.55;;
75061;SDS011;63641;46.526;24.612;2022-11-20T13:31:39;17.75;;;15.85;;
75061;SDS011;63641;46.526;24.612;2022-11-20T13:34:11;18.25;;;15.50;;
75061;SDS011;63641;46.526;24.612;2022-11-20T13:36:50;17.05;;;14.88;;
75061;SDS011;63641;46.526;24.612;2022-11-20T13:39:29;18.33;;;15.27;;
75061;SDS011;63641;46.526;24.612;2022-11-20T13:41:59;16.27;;;14.45;;
75061;SDS011;63641;46.526;24.612;2022-11-20T13:47:28;18.05;;;15.15;;
75061;SDS011;63641;46.526;24.612;2022-11-20T13:49:56;16.20;;;14.02;;
75061;SDS011;63641;46.526;24.612;2022-11-20T14:00:23;15.93;;;14.20;;
75061;SDS011;63641;46.526;24.612;2022-11-20T14:03:10;18.50;;;15.85;;
75061;SDS011;63641;46.526;24.612;2022-11-20T14:06:05;19.58;;;15.05;;
75061;SDS011;63641;46.526;24.612;2022-11-20T14:08:58;19.40;;;16.35;;
75061;SDS011;63641;46.526;24.612;2022-11-20T14:11:26;20.25;;;15.85;;
75061;SDS011;63641;46.526;24.612;2022-11-20T14:13:55;20.48;;;17.55;;
75061;SDS011;63641;46.526;24.612;2022-11-20T14:16:40;20.58;;;17.35;;
75061;SDS011;63641;46.526;24.612;2022-11-20T14:19:42;19.88;;;17.13;;
75061;SDS011;63641;46.526;24.612;2022-11-20T14:22:10;20.50;;;17.50;;
75061;SDS011;63641;46.526;24.612;2022-11-20T14:24:45;22.92;;;18.95;;
75061;SDS011;63641;46.526;24.612;2022-11-20T14:27:19;23.20;;;19.20;;
75061;SDS011;63641;46.526;24.612;2022-11-20T14:29:47;21.58;;;17.85;;
75061;SDS011;63641;46.526;24.612;2022-11-20T14:32:17;24.25;;;19.75;;
75061;SDS011;63641;46.526;24.612;2022-11-20T14:34:46;30.35;;;24.55;;
75061;SDS011;63641;46.526;24.612;2022-11-20T14:37:19;36.28;;;25.98;;
75061;SDS011;63641;46.526;24.612;2022-11-20T14:39:50;34.33;;;24.95;;
75061;SDS011;63641;46.526;24.612;2022-11-20T14:42:23;29.63;;;21.90;;
75061;SDS011;63641;46.526;24.612;2022-11-20T14:44:55;27.17;;;19.67;;
75061;SDS011;63641;46.526;24.612;2022-11-20T14:47:25;21.50;;;18.73;;
75061;SDS011;63641;46.526;24.612;2022-11-20T14:49:54;23.33;;;19.33;;
75061;SDS011;63641;46.526;24.612;2022-11-20T14:52:23;27.65;;;22.05;;
75061;SDS011;63641;46.526;24.612;2022-11-20T14:54:52;28.00;;;22.63;;
75061;SDS011;63641;46.526;24.612;2022-11-20T14:57:30;27.27;;;21.52;;
75061;SDS011;63641;46.526;24.612;2022-11-20T15:02:43;21.45;;;17.45;;
75061;SDS011;63641;46.526;24.612;2022-11-20T15:05:12;21.38;;;17.85;;
75061;SDS011;63641;46.526;24.612;2022-11-20T15:07:46;20.83;;;17.35;;
75061;SDS011;63641;46.526;24.612;2022-11-20T15:12:49;20.73;;;18.02;;
75061;SDS011;63641;46.526;24.612;2022-11-20T15:15:25;25.20;;;18.10;;
75061;SDS011;63641;46.526;24.612;2022-11-20T15:18:17;22.73;;;17.95;;
75061;SDS011;63641;46.526;24.612;2022-11-20T15:20:49;24.95;;;22.25;;
75061;SDS011;63641;46.526;24.612;2022-11-20T15:23:16;24.58;;;20.20;;
75061;SDS011;63641;46.526;24.612;2022-11-20T15:25:44;23.10;;;18.73;;
75061;SDS011;63641;46.526;24.612;2022-11-20T15:28:16;22.27;;;17.00;;
75061;SDS011;63641;46.526;24.612;2022-11-20T15:30:44;20.63;;;15.75;;
75061;SDS011;63641;46.526;24.612;2022-11-20T15:33:13;21.98;;;16.27;;
75061;SDS011;63641;46.526;24.612;2022-11-20T15:35:40;19.02;;;16.98;;
75061;SDS011;63641;46.526;24.612;2022-11-20T15:38:07;20.40;;;16.65;;
75061;SDS011;63641;46.526;24.612;2022-11-20T15:40:35;20.48;;;15.93;;
75061;SDS011;63641;46.526;24.612;2022-11-20T15:43:02;18.73;;;14.73;;
75061;SDS011;63641;46.526;24.612;2022-11-20T15:45:40;19.67;;;14.77;;
75061;SDS011;63641;46.526;24.612;2022-11-20T15:48:11;20.95;;;14.77;;
75061;SDS011;63641;46.526;24.612;2022-11-20T15:50:54;21.48;;;17.00;;
75061;SDS011;63641;46.526;24.612;2022-11-20T15:53:24;20.15;;;16.70;;
75061;SDS011;63641;46.526;24.612;2022-11-20T15:55:51;23.35;;;18.60;;
75061;SDS011;63641;46.526;24.612;2022-11-20T15:58:18;27.67;;;17.65;;
75061;SDS011;63641;46.526;24.612;2022-11-20T16:00:44;23.30;;;17.60;;
75061;SDS011;63641;46.526;24.612;2022-11-20T16:03:12;23.25;;;16.73;;
75061;SDS011;63641;46.526;24.612;2022-11-20T16:05:39;24.85;;;19.65;;
75061;SDS011;63641;46.526;24.612;2022-11-20T16:08:06;22.88;;;19.10;;
75061;SDS011;63641;46.526;24.612;2022-11-20T16:10:37;23.58;;;18.98;;
75061;SDS011;63641;46.526;24.612;2022-11-20T16:13:04;35.35;;;31.95;;
75061;SDS011;63641;46.526;24.612;2022-11-20T16:15:58;23.55;;;20.27;;
75061;SDS011;63641;46.526;24.612;2022-11-20T16:18:26;22.85;;;20.40;;
75061;SDS011;63641;46.526;24.612;2022-11-20T16:20:54;20.60;;;18.40;;
75061;SDS011;63641;46.526;24.612;2022-11-20T16:23:21;23.15;;;19.27;;
75061;SDS011;63641;46.526;24.612;2022-11-20T16:25:48;21.23;;;17.85;;
75061;SDS011;63641;46.526;24.612;2022-11-20T16:28:15;19.60;;;16.45;;
75061;SDS011;63641;46.526;24.612;2022-11-20T16:30:44;18.77;;;16.73;;
75061;SDS011;63641;46.526;24.612;2022-11-20T16:33:13;21.35;;;18.10;;
75061;SDS011;63641;46.526;24.612;2022-11-20T16:35:41;18.40;;;15.90;;
75061;SDS011;63641;46.526;24.612;2022-11-20T16:38:08;83.53;;;61.92;;
75061;SDS011;63641;46.526;24.612;2022-11-20T16:40:34;27.55;;;23.45;;
75061;SDS011;63641;46.526;24.612;2022-11-20T16:43:06;18.20;;;14.88;;
75061;SDS011;63641;46.526;24.612;2022-11-20T16:45:40;15.60;;;13.40;;
75061;SDS011;63641;46.526;24.612;2022-11-20T16:48:28;15.70;;;13.63;;
75061;SDS011;63641;46.526;24.612;2022-11-20T16:51:09;15.50;;;13.80;;
75061;SDS011;63641;46.526;24.612;2022-11-20T16:53:37;16.77;;;14.50;;
75061;SDS011;63641;46.526;24.612;2022-11-20T16:56:08;17.58;;;14.88;;
75061;SDS011;63641;46.526;24.612;2022-11-20T16:58:48;16.23;;;14.38;;
75061;SDS011;63641;46.526;24.612;2022-11-20T17:01:17;18.30;;;15.60;;
75061;SDS011;63641;46.526;24.612;2022-11-20T17:06:29;17.05;;;15.15;;
75061;SDS011;63641;46.526;24.612;2022-11-20T17:09:11;16.55;;;14.00;;
75061;SDS011;63641;46.526;24.612;2022-11-20T17:11:44;17.80;;;13.98;;
75061;SDS011;63641;46.526;24.612;2022-11-20T17:14:19;15.05;;;12.98;;
75061;SDS011;63641;46.526;24.612;2022-11-20T17:16:47;16.05;;;14.15;;
75061;SDS011;63641;46.526;24.612;2022-11-20T17:19:13;15.45;;;13.80;;
75061;SDS011;63641;46.526;24.612;2022-11-20T17:21:43;15.27;;;13.68;;
75061;SDS011;63641;46.526;24.612;2022-11-20T17:24:10;16.58;;;13.77;;
75061;SDS011;63641;46.526;24.612;2022-11-20T17:26:39;18.02;;;13.75;;
75061;SDS011;63641;46.526;24.612;2022-11-20T17:29:11;18.13;;;13.70;;
75061;SDS011;63641;46.526;24.612;2022-11-20T17:31:40;15.93;;;14.23;;
75061;SDS011;63641;46.526;24.612;2022-11-20T17:34:09;16.70;;;14.25;;
75061;SDS011;63641;46.526;24.612;2022-11-20T17:36:38;15.82;;;14.00;;
75061;SDS011;63641;46.526;24.612;2022-11-20T17:39:11;16.92;;;14.57;;
75061;SDS011;63641;46.526;24.612;2022-11-20T17:41:39;17.20;;;15.30;;
75061;SDS011;63641;46.526;24.612;2022-11-20T17:44:08;15.85;;;14.07;;
75061;SDS011;63641;46.526;24.612;2022-11-20T17:46:35;25.90;;;23.35;;
75061;SDS011;63641;46.526;24.612;2022-11-20T17:49:02;18.08;;;16.15;;
75061;SDS011;63641;46.526;24.612;2022-11-20T17:51:30;17.85;;;13.98;;